PSMNG SBRJ-SBJD
Flight info
| Callsign | PSMNG |
|---|---|
| Flight time | 0h 51m |
| Altitude | 30000 |
| Route | ESORU DCT EDMUS DCT ILMUR |
| Aircraft | E50P/L-SBDFGRWY/LB2 |
Departure
| Time | 2026-05-04 23:44 |
|---|---|
| Airport | Santos Dumont Airport (SBRJ) |
Arrival
| Time | 2026-05-05 00:35 |
|---|---|
| Airport | Comte. Rolim Adolfo Amaro–Jundiaí State Airport (SBJD) |
| Time | Latitude | Longitude | Altitude | Speed | Heading |
|---|---|---|---|---|---|
| 2026-05-04 23:28 | -22.90705 | -43.16480 | 18 ft | 0 kts | 176° |
| 2026-05-04 23:38 | -22.90712 | -43.16480 | 18 ft | 1 kts | 176° |
| 2026-05-04 23:38 | -22.90720 | -43.16478 | 18 ft | 1 kts | 148° |
| 2026-05-04 23:39 | -22.90724 | -43.16473 | 18 ft | 1 kts | 120° |
| 2026-05-04 23:39 | -22.90725 | -43.16451 | 18 ft | 4 kts | 97° |
| 2026-05-04 23:39 | -22.90744 | -43.16442 | 18 ft | 4 kts | 185° |
| 2026-05-04 23:39 | -22.90791 | -43.16440 | 18 ft | 9 kts | 174° |
| 2026-05-04 23:40 | -22.90810 | -43.16410 | 19 ft | 6 kts | 86° |
| 2026-05-04 23:40 | -22.90820 | -43.16371 | 19 ft | 4 kts | 180° |
| 2026-05-04 23:40 | -22.90877 | -43.16367 | 18 ft | 13 kts | 175° |
| 2026-05-04 23:40 | -22.90984 | -43.16361 | 16 ft | 17 kts | 176° |
| 2026-05-04 23:41 | -22.91106 | -43.16354 | 16 ft | 18 kts | 176° |
| 2026-05-04 23:41 | -22.91234 | -43.16346 | 15 ft | 19 kts | 176° |
| 2026-05-04 23:41 | -22.91370 | -43.16336 | 14 ft | 17 kts | 176° |
| 2026-05-04 23:41 | -22.91418 | -43.16333 | 13 ft | 0 kts | 177° |
| 2026-05-04 23:42 | -22.91422 | -43.16333 | 13 ft | 2 kts | 176° |
| 2026-05-04 23:42 | -22.91467 | -43.16330 | 13 ft | 11 kts | 176° |
| 2026-05-04 23:42 | -22.91564 | -43.16324 | 14 ft | 15 kts | 178° |
| 2026-05-04 23:43 | -22.91609 | -43.16287 | 15 ft | 10 kts | 110° |
| 2026-05-04 23:43 | -22.91594 | -43.16245 | 15 ft | 7 kts | 353° |
| 2026-05-04 23:43 | -22.91574 | -43.16248 | 15 ft | 0 kts | 357° |
| 2026-05-04 23:43 | -22.91452 | -43.16255 | 15 ft | 51 kts | 355° |
| 2026-05-04 23:44 | -22.90879 | -43.16292 | 19 ft | 111 kts | 357° |
| 2026-05-04 23:44 | -22.90031 | -43.16363 | 336 ft | 130 kts | 356° |
| 2026-05-04 23:44 | -22.89103 | -43.16498 | 791 ft | 141 kts | 2° |
| 2026-05-04 23:44 | -22.88195 | -43.16018 | 1044 ft | 161 kts | 52° |
| 2026-05-04 23:45 | -22.87882 | -43.14805 | 1346 ft | 183 kts | 94° |
| 2026-05-04 23:45 | -22.88222 | -43.13391 | 1775 ft | 202 kts | 103° |
| 2026-05-04 23:45 | -22.88358 | -43.11881 | 2602 ft | 202 kts | 90° |
| 2026-05-04 23:45 | -22.88364 | -43.10335 | 3340 ft | 208 kts | 91° |
| 2026-05-04 23:46 | -22.88413 | -43.08748 | 4079 ft | 213 kts | 92° |
| 2026-05-04 23:46 | -22.88541 | -43.07132 | 4771 ft | 218 kts | 105° |
| 2026-05-04 23:46 | -22.89214 | -43.05668 | 5473 ft | 219 kts | 127° |
| 2026-05-04 23:46 | -22.90303 | -43.04534 | 6196 ft | 217 kts | 149° |
| 2026-05-04 23:47 | -22.91681 | -43.03897 | 6878 ft | 217 kts | 169° |
| 2026-05-04 23:47 | -22.93185 | -43.03838 | 7518 ft | 217 kts | 190° |
| 2026-05-04 23:47 | -22.94609 | -43.04363 | 8152 ft | 218 kts | 210° |
| 2026-05-04 23:47 | -22.95813 | -43.05363 | 8765 ft | 219 kts | 221° |
| 2026-05-04 23:48 | -22.96986 | -43.06397 | 9371 ft | 221 kts | 219° |
| 2026-05-04 23:48 | -22.98189 | -43.07453 | 9994 ft | 223 kts | 221° |
| 2026-05-04 23:48 | -22.99388 | -43.08541 | 10546 ft | 225 kts | 221° |
| 2026-05-04 23:48 | -23.00603 | -43.09630 | 11096 ft | 227 kts | 221° |
| 2026-05-04 23:49 | -23.01826 | -43.10722 | 11651 ft | 228 kts | 221° |
| 2026-05-04 23:49 | -23.02938 | -43.11946 | 12186 ft | 229 kts | 235° |
| 2026-05-04 23:49 | -23.03684 | -43.13480 | 12740 ft | 231 kts | 249° |
| 2026-05-04 23:49 | -23.04024 | -43.15168 | 13280 ft | 234 kts | 264° |
| 2026-05-04 23:50 | -23.03920 | -43.16935 | 13820 ft | 238 kts | 279° |
| 2026-05-04 23:50 | -23.03344 | -43.18635 | 14324 ft | 243 kts | 296° |
| 2026-05-04 23:50 | -23.02337 | -43.20104 | 14836 ft | 246 kts | 310° |
| 2026-05-04 23:50 | -23.01166 | -43.21469 | 15350 ft | 246 kts | 309° |
| 2026-05-04 23:51 | -23.00022 | -43.22854 | 15878 ft | 246 kts | 309° |
| 2026-05-04 23:51 | -22.98857 | -43.24224 | 16394 ft | 247 kts | 309° |
| 2026-05-04 23:51 | -22.97689 | -43.25597 | 16916 ft | 248 kts | 309° |
| 2026-05-04 23:51 | -22.96523 | -43.26977 | 17480 ft | 248 kts | 309° |
| 2026-05-04 23:52 | -22.95358 | -43.28356 | 18039 ft | 248 kts | 309° |
| 2026-05-04 23:52 | -22.94185 | -43.29740 | 18580 ft | 249 kts | 309° |
| 2026-05-04 23:52 | -22.93012 | -43.31128 | 19073 ft | 251 kts | 309° |
| 2026-05-04 23:52 | -22.91829 | -43.32525 | 19576 ft | 252 kts | 309° |
| 2026-05-04 23:53 | -22.90660 | -43.33955 | 20061 ft | 254 kts | 307° |
| 2026-05-04 23:53 | -22.89487 | -43.35397 | 20555 ft | 256 kts | 308° |
| 2026-05-04 23:53 | -22.88295 | -43.36849 | 21045 ft | 258 kts | 308° |
| 2026-05-04 23:53 | -22.87115 | -43.38295 | 21530 ft | 260 kts | 307° |
| 2026-05-04 23:54 | -22.85911 | -43.39775 | 22034 ft | 263 kts | 307° |
| 2026-05-04 23:54 | -22.84694 | -43.41267 | 22526 ft | 265 kts | 307° |
| 2026-05-04 23:54 | -22.83468 | -43.42772 | 23024 ft | 267 kts | 307° |
| 2026-05-04 23:54 | -22.82230 | -43.44288 | 23518 ft | 270 kts | 307° |
| 2026-05-04 23:55 | -22.80982 | -43.45820 | 23977 ft | 272 kts | 307° |
| 2026-05-04 23:55 | -22.79870 | -43.47453 | 24371 ft | 268 kts | 291° |
| 2026-05-04 23:55 | -22.79845 | -43.51382 | 25178 ft | 266 kts | 256° |
| 2026-05-04 23:56 | -22.80354 | -43.53318 | 25618 ft | 267 kts | 255° |
| 2026-05-04 23:56 | -22.80793 | -43.55279 | 26078 ft | 268 kts | 258° |
| 2026-05-04 23:56 | -22.81163 | -43.57240 | 26514 ft | 269 kts | 258° |
| 2026-05-04 23:56 | -22.81559 | -43.59231 | 26958 ft | 271 kts | 258° |
| 2026-05-04 23:57 | -22.81967 | -43.61227 | 27405 ft | 272 kts | 258° |
| 2026-05-04 23:57 | -22.82373 | -43.63231 | 27856 ft | 273 kts | 258° |
| 2026-05-04 23:57 | -22.82780 | -43.65245 | 28305 ft | 274 kts | 258° |
| 2026-05-04 23:57 | -22.83187 | -43.67272 | 28740 ft | 276 kts | 258° |
| 2026-05-04 23:58 | -22.83598 | -43.69310 | 29173 ft | 277 kts | 258° |
| 2026-05-04 23:58 | -22.84011 | -43.71361 | 29627 ft | 278 kts | 258° |
| 2026-05-04 23:58 | -22.84424 | -43.73407 | 30047 ft | 278 kts | 257° |
| 2026-05-04 23:58 | -22.84841 | -43.75486 | 30152 ft | 289 kts | 258° |
| 2026-05-04 23:59 | -22.85278 | -43.77656 | 30157 ft | 300 kts | 257° |
| 2026-05-04 23:59 | -22.86191 | -43.82202 | 30176 ft | 316 kts | 258° |
| 2026-05-05 00:00 | -22.87141 | -43.86948 | 30177 ft | 327 kts | 257° |
| 2026-05-05 00:00 | -22.87953 | -43.90996 | 30186 ft | 333 kts | 257° |
| 2026-05-05 00:01 | -22.88941 | -43.95946 | 30196 ft | 338 kts | 258° |
| 2026-05-05 00:01 | -22.90103 | -44.01769 | 30206 ft | 342 kts | 257° |
| 2026-05-05 00:02 | -22.90943 | -44.05991 | 30212 ft | 345 kts | 257° |
| 2026-05-05 00:02 | -22.91958 | -44.11086 | 30218 ft | 346 kts | 257° |
| 2026-05-05 00:03 | -22.92972 | -44.16207 | 30219 ft | 348 kts | 257° |
| 2026-05-05 00:03 | -22.93996 | -44.21371 | 30213 ft | 350 kts | 257° |
| 2026-05-05 00:04 | -22.95018 | -44.26544 | 30218 ft | 350 kts | 257° |
| 2026-05-05 00:04 | -22.96038 | -44.31706 | 30228 ft | 350 kts | 257° |
| 2026-05-05 00:05 | -22.97056 | -44.36875 | 30220 ft | 350 kts | 257° |
| 2026-05-05 00:05 | -22.98072 | -44.42037 | 30227 ft | 349 kts | 257° |
| 2026-05-05 00:06 | -22.99084 | -44.47190 | 30223 ft | 349 kts | 257° |
| 2026-05-05 00:06 | -23.00095 | -44.52352 | 30224 ft | 350 kts | 258° |
| 2026-05-05 00:07 | -23.01101 | -44.57488 | 30222 ft | 350 kts | 257° |
| 2026-05-05 00:07 | -23.02112 | -44.62667 | 30218 ft | 350 kts | 257° |
| 2026-05-05 00:08 | -23.03122 | -44.67834 | 30222 ft | 350 kts | 257° |
| 2026-05-05 00:08 | -23.04286 | -44.72961 | 30219 ft | 349 kts | 256° |
| 2026-05-05 00:09 | -23.05428 | -44.78066 | 30229 ft | 348 kts | 256° |
| 2026-05-05 00:09 | -23.06582 | -44.83177 | 30231 ft | 348 kts | 256° |
| 2026-05-05 00:10 | -23.07728 | -44.88291 | 30228 ft | 349 kts | 256° |
| 2026-05-05 00:10 | -23.08879 | -44.93423 | 30229 ft | 349 kts | 256° |
| 2026-05-05 00:11 | -23.10026 | -44.98549 | 30227 ft | 350 kts | 256° |
| 2026-05-05 00:11 | -23.11174 | -45.03684 | 30227 ft | 350 kts | 256° |
| 2026-05-05 00:12 | -23.12320 | -45.08819 | 30226 ft | 350 kts | 256° |
| 2026-05-05 00:12 | -23.13463 | -45.13954 | 30229 ft | 350 kts | 256° |
| 2026-05-05 00:13 | -23.14605 | -45.19088 | 30216 ft | 350 kts | 256° |
| 2026-05-05 00:13 | -23.15738 | -45.24193 | 30215 ft | 350 kts | 256° |
| 2026-05-05 00:14 | -23.16877 | -45.29331 | 30211 ft | 349 kts | 256° |
| 2026-05-05 00:14 | -23.18014 | -45.34467 | 30205 ft | 349 kts | 256° |
| 2026-05-05 00:15 | -23.18627 | -45.39696 | 30201 ft | 351 kts | 269° |
| 2026-05-05 00:15 | -23.18027 | -45.44987 | 30213 ft | 353 kts | 276° |
| 2026-05-05 00:16 | -23.17314 | -45.50281 | 29891 ft | 360 kts | 276° |
| 2026-05-05 00:16 | -23.16930 | -45.53010 | 29407 ft | 370 kts | 276° |
| 2026-05-05 00:16 | -23.16545 | -45.55766 | 28920 ft | 377 kts | 276° |
| 2026-05-05 00:16 | -23.16152 | -45.58601 | 28422 ft | 383 kts | 276° |
| 2026-05-05 00:17 | -23.15753 | -45.61477 | 27918 ft | 387 kts | 276° |
| 2026-05-05 00:17 | -23.15347 | -45.64381 | 27400 ft | 390 kts | 276° |
| 2026-05-05 00:17 | -23.14939 | -45.67300 | 26889 ft | 392 kts | 276° |
| 2026-05-05 00:17 | -23.14528 | -45.70241 | 26390 ft | 394 kts | 276° |
| 2026-05-05 00:18 | -23.14115 | -45.73194 | 25868 ft | 395 kts | 276° |
| 2026-05-05 00:18 | -23.13701 | -45.76146 | 25350 ft | 396 kts | 276° |
| 2026-05-05 00:18 | -23.13285 | -45.79110 | 24828 ft | 397 kts | 276° |
| 2026-05-05 00:18 | -23.12867 | -45.82079 | 24305 ft | 398 kts | 276° |
| 2026-05-05 00:19 | -23.12450 | -45.85052 | 23774 ft | 399 kts | 276° |
| 2026-05-05 00:19 | -23.12030 | -45.88026 | 23211 ft | 398 kts | 277° |
| 2026-05-05 00:19 | -23.11609 | -45.91001 | 22684 ft | 397 kts | 277° |
| 2026-05-05 00:19 | -23.11193 | -45.93960 | 22159 ft | 396 kts | 277° |
| 2026-05-05 00:20 | -23.10774 | -45.96914 | 21635 ft | 395 kts | 277° |
| 2026-05-05 00:20 | -23.10356 | -45.99862 | 21108 ft | 394 kts | 277° |
| 2026-05-05 00:20 | -23.09937 | -46.02802 | 20584 ft | 393 kts | 277° |
| 2026-05-05 00:20 | -23.09522 | -46.05738 | 20073 ft | 393 kts | 277° |
| 2026-05-05 00:21 | -23.09106 | -46.08671 | 19549 ft | 393 kts | 277° |
| 2026-05-05 00:21 | -23.08689 | -46.11579 | 19035 ft | 382 kts | 277° |
| 2026-05-05 00:21 | -23.08291 | -46.14353 | 18544 ft | 362 kts | 277° |
| 2026-05-05 00:21 | -23.07916 | -46.16991 | 18039 ft | 345 kts | 277° |
| 2026-05-05 00:22 | -23.07556 | -46.19511 | 17592 ft | 331 kts | 277° |
| 2026-05-05 00:22 | -23.07207 | -46.21944 | 17167 ft | 320 kts | 277° |
| 2026-05-05 00:22 | -23.06875 | -46.24267 | 16762 ft | 312 kts | 277° |
| 2026-05-05 00:22 | -23.06543 | -46.26574 | 16361 ft | 306 kts | 277° |
| 2026-05-05 00:23 | -23.06218 | -46.28835 | 15964 ft | 300 kts | 277° |
| 2026-05-05 00:23 | -23.05899 | -46.31062 | 15576 ft | 297 kts | 277° |
| 2026-05-05 00:23 | -23.05582 | -46.33266 | 15186 ft | 293 kts | 277° |
| 2026-05-05 00:23 | -23.05267 | -46.35445 | 14807 ft | 291 kts | 277° |
| 2026-05-05 00:24 | -23.04955 | -46.37610 | 14428 ft | 289 kts | 277° |
| 2026-05-05 00:24 | -23.04644 | -46.39766 | 14046 ft | 288 kts | 277° |
| 2026-05-05 00:24 | -23.04333 | -46.41911 | 13642 ft | 286 kts | 277° |
| 2026-05-05 00:24 | -23.04027 | -46.44037 | 13261 ft | 284 kts | 277° |
| 2026-05-05 00:25 | -23.03720 | -46.46152 | 12885 ft | 283 kts | 277° |
| 2026-05-05 00:25 | -23.03416 | -46.48252 | 12515 ft | 281 kts | 277° |
| 2026-05-05 00:25 | -23.03113 | -46.50338 | 12144 ft | 279 kts | 277° |
| 2026-05-05 00:25 | -23.02812 | -46.52419 | 11777 ft | 278 kts | 278° |
| 2026-05-05 00:26 | -23.02510 | -46.54488 | 11409 ft | 277 kts | 278° |
| 2026-05-05 00:26 | -23.02210 | -46.56551 | 11046 ft | 276 kts | 278° |
| 2026-05-05 00:26 | -23.01916 | -46.58580 | 10685 ft | 276 kts | 278° |
| 2026-05-05 00:26 | -23.01626 | -46.60557 | 10338 ft | 277 kts | 278° |
| 2026-05-05 00:27 | -23.01324 | -46.62631 | 9958 ft | 279 kts | 279° |
| 2026-05-05 00:27 | -23.01020 | -46.64711 | 9574 ft | 279 kts | 279° |
| 2026-05-05 00:27 | -23.00716 | -46.66791 | 9206 ft | 279 kts | 279° |
| 2026-05-05 00:27 | -23.00411 | -46.68870 | 8835 ft | 278 kts | 279° |
| 2026-05-05 00:28 | -23.00109 | -46.70945 | 8463 ft | 278 kts | 279° |
| 2026-05-05 00:28 | -22.99804 | -46.73016 | 8099 ft | 277 kts | 279° |
| 2026-05-05 00:28 | -22.99501 | -46.75082 | 7732 ft | 277 kts | 279° |
| 2026-05-05 00:28 | -22.99200 | -46.77143 | 7366 ft | 277 kts | 279° |
| 2026-05-05 00:29 | -22.98894 | -46.79205 | 6999 ft | 276 kts | 279° |
| 2026-05-05 00:29 | -22.98594 | -46.81260 | 6640 ft | 276 kts | 279° |
| 2026-05-05 00:29 | -22.98302 | -46.83314 | 6265 ft | 274 kts | 277° |
| 2026-05-05 00:29 | -22.98373 | -46.85369 | 5901 ft | 274 kts | 261° |
| 2026-05-05 00:30 | -22.98916 | -46.87314 | 5582 ft | 260 kts | 246° |
| 2026-05-05 00:30 | -22.99806 | -46.88927 | 5374 ft | 241 kts | 233° |
| 2026-05-05 00:30 | -23.00913 | -46.90186 | 5207 ft | 225 kts | 222° |
| 2026-05-05 00:30 | -23.02013 | -46.91292 | 5196 ft | 208 kts | 225° |
| 2026-05-05 00:31 | -23.03000 | -46.92326 | 5193 ft | 185 kts | 224° |
| 2026-05-05 00:31 | -23.03901 | -46.93236 | 5073 ft | 171 kts | 224° |
| 2026-05-05 00:31 | -23.04771 | -46.94091 | 4875 ft | 168 kts | 217° |
| 2026-05-05 00:31 | -23.05834 | -46.94579 | 4671 ft | 165 kts | 197° |
| 2026-05-05 00:32 | -23.06887 | -46.95032 | 4474 ft | 160 kts | 203° |
| 2026-05-05 00:32 | -23.07901 | -46.95498 | 4281 ft | 156 kts | 200° |
| 2026-05-05 00:32 | -23.08906 | -46.95927 | 4087 ft | 153 kts | 200° |
| 2026-05-05 00:32 | -23.09887 | -46.96349 | 3900 ft | 146 kts | 197° |
| 2026-05-05 00:33 | -23.10825 | -46.96413 | 3736 ft | 132 kts | 167° |
| 2026-05-05 00:33 | -23.11717 | -46.96243 | 3581 ft | 130 kts | 172° |
| 2026-05-05 00:33 | -23.12633 | -46.96134 | 3429 ft | 135 kts | 169° |
| 2026-05-05 00:33 | -23.13548 | -46.95984 | 3267 ft | 131 kts | 169° |
| 2026-05-05 00:34 | -23.14448 | -46.95844 | 3108 ft | 131 kts | 171° |
| 2026-05-05 00:34 | -23.15358 | -46.95705 | 2939 ft | 133 kts | 171° |
| 2026-05-05 00:34 | -23.16240 | -46.95471 | 2781 ft | 129 kts | 148° |
| 2026-05-05 00:34 | -23.16915 | -46.94958 | 2667 ft | 110 kts | 153° |
| 2026-05-05 00:35 | -23.17579 | -46.94627 | 2537 ft | 100 kts | 156° |
| 2026-05-05 00:35 | -23.18122 | -46.94374 | 2521 ft | 50 kts | 158° |
| 2026-05-05 00:35 | -23.18315 | -46.94285 | 2521 ft | 6 kts | 144° |
| 2026-05-05 00:35 | -23.18331 | -46.94247 | 2521 ft | 6 kts | 119° |
| 2026-05-05 00:36 | -23.18359 | -46.94209 | 2520 ft | 8 kts | 124° |
| 2026-05-05 00:36 | -23.18377 | -46.94169 | 2518 ft | 2 kts | 58° |
| 2026-05-05 00:36 | -23.18356 | -46.94163 | 2518 ft | 4 kts | 344° |
| 2026-05-05 00:36 | -23.18325 | -46.94178 | 2517 ft | 6 kts | 335° |
| 2026-05-05 00:37 | -23.18279 | -46.94202 | 2518 ft | 9 kts | 336° |
| 2026-05-05 00:37 | -23.18218 | -46.94231 | 2516 ft | 8 kts | 337° |
| 2026-05-05 00:37 | -23.18172 | -46.94252 | 2518 ft | 7 kts | 340° |
| 2026-05-05 00:37 | -23.18120 | -46.94275 | 2519 ft | 9 kts | 337° |
| 2026-05-05 00:38 | -23.18067 | -46.94291 | 2518 ft | 4 kts | 32° |
| 2026-05-05 00:38 | -23.18059 | -46.94278 | 2518 ft | 0 kts | 60° |
| 2026-05-05 00:38 | -23.18055 | -46.94271 | 2514 ft | 3 kts | 60° |
| 2026-05-05 00:38 | -23.18046 | -46.94244 | 2518 ft | 1 kts | 106° |
| 2026-05-05 00:39 | -23.18053 | -46.94235 | 2518 ft | 1 kts | 164° |
| 2026-05-05 00:39 | -23.18057 | -46.94242 | 2518 ft | 1 kts | 284° |
| 2026-05-05 00:39 | -23.18058 | -46.94246 | 2518 ft | 0 kts | 248° |